createdAt,value
2023-01-25T04:10:15.440Z,13.33
2023-01-25T04:12:47.599Z,13.80
2023-01-25T04:15:16.687Z,13.80
2023-01-25T04:17:45.017Z,13.17
2023-01-25T04:20:20.202Z,13.60
2023-01-25T04:22:48.761Z,12.23
2023-01-25T04:25:20.932Z,12.97
2023-01-25T04:27:53.981Z,12.60
2023-01-25T04:30:22.421Z,13.13
2023-01-25T04:32:51.945Z,12.80
2023-01-25T04:35:27.909Z,14.03
2023-01-25T04:37:59.415Z,13.93
2023-01-25T04:40:36.026Z,15.33
2023-01-25T04:43:04.833Z,14.53
2023-01-25T04:45:33.673Z,14.13
2023-01-25T04:48:09.844Z,14.73
2023-01-25T04:50:41.234Z,15.80
2023-01-25T04:53:12.210Z,14.17
2023-01-25T04:55:42.044Z,14.53
2023-01-25T04:58:10.326Z,14.90
2023-01-25T05:00:39.469Z,15.30
2023-01-25T05:03:07.918Z,15.13
2023-01-25T05:05:36.417Z,17.13
2023-01-25T05:08:09.562Z,16.07
2023-01-25T05:10:38.422Z,16.83
2023-01-25T05:13:34.397Z,16.80
2023-01-25T05:16:14.851Z,17.13
2023-01-25T05:18:48.764Z,17.73
2023-01-25T05:21:39.600Z,18.03
2023-01-25T05:24:09.570Z,17.27
2023-01-25T05:26:56.187Z,17.57
2023-01-25T05:29:25.797Z,17.03
2023-01-25T05:32:08.252Z,17.97
2023-01-25T05:34:39.130Z,17.87
2023-01-25T05:37:09.381Z,17.60
2023-01-25T05:39:42.061Z,18.63
2023-01-25T05:42:13.873Z,18.60
2023-01-25T05:44:46.085Z,17.70
2023-01-25T05:47:17.937Z,18.03
2023-01-25T05:49:46.409Z,18.63
2023-01-25T05:52:22.386Z,19.00
2023-01-25T05:54:51.030Z,17.97
2023-01-25T05:57:19.306Z,20.13
2023-01-25T05:59:49.077Z,20.07
2023-01-25T06:02:20.369Z,19.43
2023-01-25T06:04:49.822Z,20.07
2023-01-25T06:07:18.061Z,23.20
2023-01-25T06:09:46.742Z,22.03
2023-01-25T06:12:16.167Z,23.03
2023-01-25T06:14:44.471Z,22.53
2023-01-25T06:17:14.121Z,20.37
2023-01-25T06:20:14.882Z,21.00
2023-01-25T06:22:57.280Z,21.13
2023-01-25T06:25:25.622Z,21.07
2023-01-25T06:27:56.272Z,21.33
2023-01-25T06:30:24.520Z,20.40
2023-01-25T06:32:54.291Z,22.73
2023-01-25T06:35:22.534Z,20.00
2023-01-25T06:37:50.871Z,21.57
2023-01-25T06:40:19.337Z,21.73
2023-01-25T06:42:47.799Z,21.50
2023-01-25T06:45:16.123Z,21.47
2023-01-25T06:47:44.792Z,21.63
2023-01-25T06:50:14.475Z,22.77
2023-01-25T06:52:42.754Z,23.80
2023-01-25T06:55:14.068Z,21.50
2023-01-25T06:57:42.386Z,23.47
2023-01-25T07:00:12.033Z,22.47
2023-01-25T07:02:40.609Z,22.83
2023-01-25T07:05:09.925Z,23.07
2023-01-25T07:07:39.783Z,22.63
2023-01-25T07:10:09.109Z,22.50
2023-01-25T07:12:37.465Z,23.07
2023-01-25T07:15:06.451Z,24.87
2023-01-25T07:17:34.846Z,21.60
2023-01-25T07:20:03.168Z,22.37
2023-01-25T07:22:31.515Z,22.53
2023-01-25T07:25:02.282Z,24.33
2023-01-25T07:27:33.764Z,23.70
2023-01-25T07:30:03.171Z,24.37
2023-01-25T07:32:31.491Z,23.13
2023-01-25T07:34:59.724Z,25.93
2023-01-25T07:37:28.223Z,24.80
2023-01-25T07:39:58.294Z,25.00
2023-01-25T07:42:28.002Z,23.83
2023-01-25T07:45:13.169Z,22.87
2023-01-25T07:47:41.411Z,23.60
2023-01-25T07:50:11.195Z,24.13
2023-01-25T07:52:39.583Z,23.70
2023-01-25T07:55:08.510Z,22.73
2023-01-25T07:57:38.371Z,22.03
2023-01-25T08:00:09.976Z,22.33
2023-01-25T08:02:40.866Z,22.73
2023-01-25T08:05:10.421Z,21.77
2023-01-25T08:07:38.937Z,22.27
2023-01-25T08:10:08.288Z,21.93
2023-01-25T08:12:38.602Z,20.87
2023-01-25T08:21:08.915Z,29.03
2023-01-25T08:23:37.603Z,25.30
2023-01-25T08:26:09.395Z,25.10
2023-01-25T08:28:39.399Z,28.83
2023-01-25T08:31:09.225Z,34.23
2023-01-25T08:33:38.010Z,26.93
2023-01-25T08:36:08.971Z,24.83
2023-01-25T08:38:37.838Z,24.17
2023-01-25T08:41:07.550Z,23.20
2023-01-25T08:43:36.644Z,22.73
2023-01-25T08:46:07.669Z,23.27
2023-01-25T08:48:36.369Z,20.70
2023-01-25T08:51:05.048Z,20.50
2023-01-25T08:53:34.052Z,20.63
2023-01-25T08:56:06.976Z,21.63
2023-01-25T08:58:35.869Z,20.83
2023-01-25T09:01:07.115Z,23.30
2023-01-25T09:03:37.718Z,22.20
2023-01-25T09:06:08.498Z,22.73
2023-01-25T09:08:37.997Z,21.57
2023-01-25T09:11:07.759Z,23.47
2023-01-25T09:13:36.086Z,23.30
2023-01-25T09:16:07.631Z,23.27
2023-01-25T09:18:38.849Z,24.13
2023-01-25T09:21:08.595Z,23.60
2023-01-25T09:23:50.319Z,22.93
2023-01-25T09:26:26.715Z,23.47
2023-01-25T09:28:56.222Z,23.93
2023-01-25T09:31:28.862Z,24.20
2023-01-25T09:34:13.583Z,22.30
2023-01-25T09:36:42.407Z,23.10
2023-01-25T09:39:13.150Z,23.23
2023-01-25T09:42:14.109Z,23.70
2023-01-25T09:45:00.281Z,22.63
2023-01-25T09:47:36.709Z,24.83
2023-01-25T09:50:26.674Z,22.10
2023-01-25T09:53:27.521Z,26.10
2023-01-25T09:55:58.936Z,25.63
2023-01-25T09:58:33.083Z,26.53
2023-01-25T10:01:14.477Z,23.47
2023-01-25T10:03:53.526Z,22.90
2023-01-25T10:06:25.001Z,23.60
2023-01-25T10:09:00.513Z,23.07
2023-01-25T10:11:31.803Z,23.70
2023-01-25T10:14:01.004Z,23.63
2023-01-25T10:16:33.421Z,23.60
2023-01-25T10:19:13.618Z,22.23
2023-01-25T10:21:44.670Z,23.63
2023-01-25T10:24:32.658Z,23.60
2023-01-25T10:27:09.622Z,22.43
2023-01-25T10:29:40.412Z,23.60
2023-01-25T10:32:20.078Z,21.63
2023-01-25T10:34:56.677Z,20.67
2023-01-25T10:37:28.535Z,21.00
2023-01-25T10:40:02.282Z,20.80
2023-01-25T10:42:34.630Z,22.57
2023-01-25T10:45:02.881Z,22.07
2023-01-25T10:47:34.431Z,20.80
2023-01-25T10:50:04.842Z,21.63
2023-01-25T10:52:35.582Z,21.53
2023-01-25T10:55:16.736Z,21.13
2023-01-25T10:57:46.760Z,20.17
2023-01-25T11:00:29.908Z,21.73
2023-01-25T11:02:59.239Z,24.90
2023-01-25T11:05:34.899Z,32.30
2023-01-25T11:08:23.709Z,25.03
2023-01-25T11:10:52.400Z,22.67
2023-01-25T11:13:26.368Z,22.47
2023-01-25T11:15:58.368Z,22.03
2023-01-25T11:18:31.684Z,22.93
2023-01-25T11:21:08.087Z,23.97
2023-01-25T11:23:36.615Z,24.40
2023-01-25T11:26:17.571Z,24.10
2023-01-25T11:28:49.135Z,24.97
2023-01-25T11:31:21.698Z,26.00
2023-01-25T11:33:50.331Z,24.23
2023-01-25T11:36:26.254Z,24.43
2023-01-25T11:39:13.593Z,23.43
2023-01-25T11:41:56.061Z,24.73
2023-01-25T11:44:49.886Z,23.37
2023-01-25T11:47:33.069Z,22.17
2023-01-25T11:50:12.795Z,25.30
2023-01-25T11:53:03.224Z,24.50
2023-01-25T11:55:41.374Z,23.87
2023-01-25T11:58:23.536Z,23.13
2023-01-25T12:01:05.810Z,24.10
2023-01-25T12:03:59.691Z,22.80
2023-01-25T12:06:36.768Z,24.47
2023-01-25T12:09:23.968Z,23.87
2023-01-25T12:12:17.713Z,24.27
2023-01-25T12:14:59.791Z,25.20
2023-01-25T12:17:43.555Z,27.27
2023-01-25T12:20:34.801Z,24.30
2023-01-25T12:23:24.719Z,25.03
2023-01-25T12:26:05.115Z,24.90
2023-01-25T12:28:37.389Z,23.60
2023-01-25T12:31:14.350Z,25.20
2023-01-25T12:33:48.181Z,23.53
2023-01-25T12:36:20.277Z,22.53
2023-01-25T12:38:56.430Z,24.77
2023-01-25T12:41:34.376Z,22.73
2023-01-25T12:44:12.695Z,24.03
2023-01-25T12:46:46.740Z,23.60
2023-01-25T12:49:21.452Z,25.67
2023-01-25T12:51:51.079Z,23.30
2023-01-25T12:54:24.626Z,27.07
2023-01-25T12:57:12.861Z,26.20
2023-01-25T12:59:51.767Z,25.57
2023-01-25T13:02:35.487Z,26.20
2023-01-25T13:05:17.488Z,23.77
2023-01-25T13:07:54.720Z,25.23
2023-01-25T13:10:28.384Z,22.50
2023-01-25T13:13:03.310Z,23.43
2023-01-25T13:15:43.295Z,23.40
2023-01-25T13:18:40.997Z,22.73
2023-01-25T13:21:33.473Z,23.60
2023-01-25T13:24:29.633Z,23.13
2023-01-25T13:27:04.284Z,23.27
2023-01-25T13:30:03.435Z,25.50
2023-01-25T13:33:06.442Z,26.27
2023-01-25T13:35:42.496Z,22.40
2023-01-25T13:38:37.103Z,21.97
2023-01-25T13:41:26.400Z,21.00
2023-01-25T13:44:15.774Z,22.87
2023-01-25T13:46:46.251Z,21.93
2023-01-25T13:49:25.033Z,24.40
2023-01-25T13:51:56.163Z,24.77
2023-01-25T13:54:24.914Z,22.80
2023-01-25T13:57:06.486Z,23.60
2023-01-25T13:59:37.520Z,23.00
2023-01-25T14:02:13.963Z,24.30
2023-01-25T14:04:42.668Z,23.57
2023-01-25T14:07:18.423Z,25.03
2023-01-25T14:09:47.062Z,23.03
2023-01-25T14:12:28.935Z,24.80
2023-01-25T14:14:57.430Z,25.57
2023-01-25T14:17:29.414Z,27.13
2023-01-25T14:19:58.018Z,26.90
2023-01-25T14:22:27.564Z,25.60
2023-01-25T14:25:08.532Z,25.70
2023-01-25T14:27:42.120Z,23.77
2023-01-25T14:30:19.983Z,24.80
2023-01-25T14:32:54.927Z,22.97
2023-01-25T14:35:54.327Z,24.90
2023-01-25T14:38:26.865Z,25.23
2023-01-25T14:40:59.331Z,25.47
2023-01-25T14:43:28.411Z,23.17
2023-01-25T14:45:57.395Z,23.50
2023-01-25T14:48:38.084Z,22.27
2023-01-25T14:51:13.930Z,23.67
2023-01-25T14:53:45.832Z,22.37
2023-01-25T14:56:34.260Z,24.93
2023-01-25T14:59:03.120Z,23.83
2023-01-25T15:01:37.169Z,24.80
2023-01-25T15:04:12.237Z,25.97
2023-01-25T15:06:48.173Z,24.43
2023-01-25T15:09:38.568Z,25.67
2023-01-25T15:12:27.644Z,27.97
2023-01-25T15:14:57.491Z,27.27
2023-01-25T15:17:46.512Z,26.23
2023-01-25T15:20:36.376Z,29.20
2023-01-25T15:23:30.901Z,28.60
2023-01-25T15:26:00.825Z,26.47
2023-01-25T15:28:34.457Z,28.63
2023-01-25T15:31:04.779Z,28.63
2023-01-25T15:33:35.277Z,27.07
2023-01-25T15:36:05.254Z,24.93
2023-01-25T15:38:33.826Z,23.87
2023-01-25T15:41:02.670Z,22.67
2023-01-25T15:43:33.788Z,24.77
2023-01-25T15:46:02.598Z,24.50
2023-01-25T15:48:34.504Z,23.33
2023-01-25T15:51:04.483Z,23.10
2023-01-25T15:53:32.929Z,22.97
2023-01-25T15:56:04.694Z,23.57
2023-01-25T15:58:36.626Z,23.87
2023-01-25T16:01:05.374Z,23.53
2023-01-25T16:03:33.821Z,24.03
2023-01-25T16:06:05.888Z,24.47
2023-01-25T16:08:34.955Z,28.40
2023-01-25T16:11:03.254Z,25.37
2023-01-25T16:13:31.554Z,25.43
2023-01-25T16:15:59.864Z,23.50
2023-01-25T16:18:28.121Z,24.43
2023-01-25T16:20:56.406Z,24.33
2023-01-25T16:23:26.116Z,23.07
2023-01-25T16:25:54.478Z,24.63
2023-01-25T16:28:22.711Z,24.67
2023-01-25T16:30:51.018Z,24.80
2023-01-25T16:33:20.821Z,27.83
2023-01-25T16:35:54.049Z,30.43
2023-01-25T16:38:22.323Z,29.67
2023-01-25T16:40:52.046Z,29.77
2023-01-25T16:43:22.726Z,28.17
2023-01-25T16:45:51.082Z,24.57
2023-01-25T16:48:19.408Z,25.80
2023-01-25T16:50:50.261Z,26.40
2023-01-25T16:53:18.560Z,23.23
2023-01-25T16:55:48.256Z,23.80
2023-01-25T16:58:17.975Z,25.37
2023-01-25T17:00:46.325Z,26.20
2023-01-25T17:03:14.643Z,23.90
2023-01-25T17:05:42.964Z,24.27
2023-01-25T17:08:11.218Z,29.63
2023-01-25T17:10:39.566Z,25.73
2023-01-25T17:13:08.837Z,28.50
2023-01-25T17:15:38.475Z,26.20
2023-01-25T17:18:06.799Z,24.37
2023-01-25T17:20:35.052Z,22.10
2023-01-25T17:23:03.372Z,25.03
2023-01-25T17:25:35.361Z,23.10
2023-01-25T17:28:03.832Z,23.30
2023-01-25T17:30:32.124Z,22.27
2023-01-25T17:33:01.935Z,23.90
2023-01-25T17:35:30.295Z,22.57
2023-01-25T17:37:58.584Z,24.57
2023-01-25T17:40:26.833Z,23.90
2023-01-25T17:42:55.132Z,31.20
2023-01-25T17:45:23.390Z,24.37
2023-01-25T17:47:51.660Z,24.63
2023-01-25T17:50:21.354Z,26.43
2023-01-25T17:52:49.674Z,34.73
2023-01-25T17:55:18.133Z,32.10
2023-01-25T17:57:46.813Z,27.73
2023-01-25T18:00:16.420Z,24.83
2023-01-25T18:02:46.295Z,26.03
2023-01-25T18:05:15.727Z,25.50
2023-01-25T18:07:45.505Z,28.67
2023-01-25T18:10:14.247Z,26.13
2023-01-25T18:12:43.750Z,24.60
2023-01-25T18:15:12.896Z,27.13
2023-01-25T18:17:41.356Z,25.20
2023-01-25T18:20:12.167Z,25.57
2023-01-25T18:22:41.726Z,22.83
2023-01-25T18:25:31.454Z,24.47
2023-01-25T18:28:00.145Z,26.87
2023-01-25T18:30:37.131Z,25.40
2023-01-25T18:33:06.714Z,25.13
2023-01-25T18:35:35.185Z,26.17
2023-01-25T18:38:03.406Z,27.00
2023-01-25T18:40:33.032Z,25.87
2023-01-25T18:43:01.644Z,28.67
2023-01-25T18:45:29.941Z,30.90
2023-01-25T18:47:58.349Z,30.60
2023-01-25T18:50:27.637Z,31.60
2023-01-25T18:52:55.911Z,29.43
2023-01-25T18:55:24.428Z,27.03
2023-01-25T18:57:54.657Z,27.50
2023-01-25T19:00:23.676Z,27.13
2023-01-25T19:02:54.627Z,29.80
2023-01-25T19:05:23.250Z,32.27
2023-01-25T19:07:51.617Z,31.73
2023-01-25T19:10:20.726Z,31.70
2023-01-25T19:12:49.152Z,31.27
2023-01-25T19:15:19.108Z,31.67
2023-01-25T19:17:47.517Z,31.00
2023-01-25T19:20:16.003Z,29.07
2023-01-25T19:22:44.349Z,30.57
2023-01-25T19:25:12.952Z,30.63
2023-01-25T19:27:41.309Z,30.33
2023-01-25T19:30:10.795Z,29.27
2023-01-25T19:32:40.537Z,29.23
2023-01-25T19:35:09.505Z,28.40
2023-01-25T19:37:38.011Z,28.63
2023-01-25T19:40:07.329Z,27.70
2023-01-25T19:42:35.676Z,26.70
2023-01-25T19:45:04.759Z,27.20
2023-01-25T19:47:33.888Z,26.80
2023-01-25T19:50:03.716Z,26.90
2023-01-25T19:52:34.286Z,26.37
2023-01-25T19:55:25.191Z,25.23
2023-01-25T19:58:27.181Z,24.43
2023-01-25T20:01:50.956Z,27.03
2023-01-25T20:04:33.089Z,26.60
2023-01-25T20:07:32.761Z,24.40
2023-01-25T20:10:03.982Z,25.60
2023-01-25T20:12:41.670Z,25.47
2023-01-25T20:15:28.729Z,24.37
2023-01-25T20:18:27.231Z,26.53
2023-01-25T20:21:21.220Z,25.23
2023-01-25T20:24:04.426Z,25.60
2023-01-25T20:26:49.054Z,25.23
2023-01-25T20:29:22.414Z,24.97
2023-01-25T20:32:12.735Z,25.53
2023-01-25T20:35:08.869Z,25.70
2023-01-25T20:37:49.501Z,24.97
2023-01-25T20:40:27.401Z,24.03
2023-01-25T20:43:24.518Z,25.47
2023-01-25T20:46:09.243Z,31.07
2023-01-25T20:48:42.167Z,25.57
2023-01-25T20:51:21.841Z,25.23
2023-01-25T20:53:58.089Z,23.03
2023-01-25T20:56:47.994Z,24.40
2023-01-25T20:59:59.489Z,25.07
2023-01-25T21:02:46.132Z,23.70
2023-01-25T21:05:19.081Z,24.27
2023-01-25T21:07:55.793Z,24.53
2023-01-25T21:10:28.635Z,25.43
2023-01-25T21:13:03.101Z,24.50
2023-01-25T21:15:44.404Z,25.57
2023-01-25T21:18:22.237Z,24.67
2023-01-25T21:21:02.852Z,23.23
2023-01-25T21:23:51.477Z,22.13
2023-01-25T21:26:26.434Z,22.27
2023-01-25T21:29:25.895Z,24.53
2023-01-25T21:32:14.532Z,25.10
2023-01-25T21:34:53.530Z,23.73
2023-01-25T21:37:56.642Z,23.87
2023-01-25T21:40:29.191Z,23.50
2023-01-25T21:43:07.916Z,23.37
2023-01-25T21:46:02.193Z,23.63
2023-01-25T21:48:52.580Z,23.47
2023-01-25T21:52:09.682Z,32.27
2023-01-25T21:54:58.783Z,27.37
2023-01-25T21:58:04.426Z,27.87
2023-01-25T22:01:08.763Z,25.87
2023-01-25T22:03:54.977Z,26.13
2023-01-25T22:06:55.936Z,25.97
2023-01-25T22:09:35.795Z,23.60
2023-01-25T22:12:20.731Z,22.73
2023-01-25T22:14:54.142Z,22.27
2023-01-25T22:17:55.482Z,23.50
2023-01-25T22:20:49.265Z,22.80
2023-01-25T22:23:46.210Z,24.00
2023-01-25T22:26:22.927Z,23.73
2023-01-25T22:29:01.684Z,26.13
2023-01-25T22:31:37.194Z,27.27
2023-01-25T22:34:28.343Z,22.20
2023-01-25T22:37:25.688Z,21.80
2023-01-25T22:40:19.679Z,21.43
2023-01-25T22:42:55.198Z,20.40
2023-01-25T22:45:35.077Z,21.77
2023-01-25T22:48:30.105Z,21.33
2023-01-25T22:51:11.797Z,21.73
2023-01-25T22:53:53.408Z,21.50
2023-01-25T22:56:56.009Z,22.43
2023-01-25T22:59:34.169Z,21.13
2023-01-25T23:02:10.951Z,24.00
2023-01-25T23:04:49.776Z,22.87
